• Join FlightAware (Why Join?)
  • Login
  • US Flag 
06:54AM EDT


 

Airport Tracker/Info


-or-


 

Live Flight TrackerFlight Track Log ✈ N2002P ✈ 27-Jun-2013 ✈ KVQQ - KSPG

Flight Track Log - Related Links

Times and Time Zones

All times are in EDT time to prevent confusion due to time zone crossing. See the N2002P flight status page for this flight to view local times or setup timezone preferences in your user account.

Time Position Orientation Groundspeed Altitude Reporting Facility
EDT Latitude Longitude Course Direction KTS MPH feet Rate Location/Type
05:37PM 29.9603 -81.9625 195° South 174 200 6,600  Level Jacksonville Center
05:38PM 29.9061 -81.9797 195° South 181 208 6,600 -60 Level Jacksonville Center
05:39PM 29.8561 -81.9897 190° South 184 212 6,500 -120 Descending Jacksonville Center
05:40PM 29.8103 -82.0069 198° South 191 220 6,400 -60 Descending Jacksonville Center
05:41PM 29.7603 -82.0242 197° South 181 208 6,400  Level Jacksonville Center
05:42PM 29.7635 -82.0191 195° South  Level Estimated
05:42PM 29.7144 -82.0364 193° South 171 197 6,400  Level Jacksonville Center
05:43PM 29.6667 -82.0511 195° South 180 207 6,400  Level Jacksonville Center
05:44PM 29.6144 -82.0661 194° South 180 207 6,400  Level Jacksonville Center
05:45PM 29.5667 -82.0831 197° South 177 204 6,400  Level Jacksonville Center
05:46PM 29.5186 -82.1003 197° South 179 206 6,400  Level Jacksonville Center
05:47PM 29.4708 -82.1100 190° South 177 204 6,400  Level Jacksonville Center
05:48PM 29.4208 -82.1272 197° South 178 205 6,400  Level Jacksonville Center
05:49PM 29.3728 -82.1442 197° South 177 204 6,400  Level Jacksonville Center
05:50PM 29.3250 -82.1567 193° South 175 201 6,400  Level Jacksonville Center
05:51PM 29.2728 -82.1783 200° South 174 200 6,400  Level Jacksonville Center
05:52PM 29.2314 -82.2050 209° Southwest 172 198 6,400  Level Jacksonville Center
05:53PM 29.1897 -82.2336 211° Southwest 172 198 6,500  Climbing Jacksonville Center
05:54PM 29.1481 -82.2625 211° Southwest 174 200 6,400 -60 Descending Jacksonville Center
05:55PM 29.1086 -82.2914 213° Southwest 175 201 6,400  Level Jacksonville Center
05:56PM 29.0647 -82.3153 205° Southwest 175 201 6,400  Level Jacksonville Center
05:57PM 29.0253 -82.3442 213° Southwest 176 203 6,500  Climbing Jacksonville Center
05:58PM 28.9628 -82.3775 205° Southwest 178 205 6,500  Level Jacksonville Center
05:59PM 28.9294 -82.3944 204° Southwest 179 206 6,500  Level Jacksonville Center
06:00PM 28.8753 -82.4161 199° South 178 205 6,500  Level Jacksonville Center
06:01PM 28.8294 -82.4400 205° Southwest 180 207 6,500  Level Jacksonville Center
06:04PM 28.7472 -82.4433 187° South  Level FlightAware Approximate
06:11PM 28.4392 -82.5023 190° South  Level FlightAware Approximate
06:12PM 28.3953 -82.5111 190° South  Level FlightAware Approximate
06:13PM 28.3513 -82.5198 190° South  Level FlightAware Approximate
06:14PM 28.3074 -82.5286 190° South  Level FlightAware Approximate
06:15PM 28.2634 -82.5374 190° South  Level FlightAware Approximate
06:16PM 28.2195 -82.5461 190° South  Level FlightAware Approximate
06:17PM 28.1753 -82.5535 187° South  Level FlightAware Approximate
06:18PM 28.1311 -82.5599 187° South  Level FlightAware Approximate
06:19PM 28.0868 -82.5662 187° South  Level FlightAware Approximate
06:20PM 28.0425 -82.5725 187° South  Level FlightAware Approximate
06:21PM 27.9982 -82.5788 187° South  Level FlightAware Approximate
06:22PM 27.9540 -82.5853 188° South  Level FlightAware Approximate
06:23PM 27.9097 -82.5921 188° South  Level FlightAware Approximate
06:24PM 27.8655 -82.5989 188° South  Level FlightAware Approximate
06:25PM 27.8213 -82.6057 188° South  Level FlightAware Approximate
06:26PM 27.7771 -82.6125 188° South  Level FlightAware Approximate
06:27PM 27.7651 -82.6270 188° South  Level Estimated
06:28PM 27.7651 -82.6270 188° South  Level Estimated
06:29PM 27.7651 -82.6270 188° South  Level Estimated
06:30PM 27.7651 -82.6270 188° South  Level Estimated
06:31PM 27.7651 -82.6270 188° South  Level Estimated
06:32PM 27.7651 -82.6270 188° South  Level Estimated
06:33PM 27.7651 -82.6270 188° South  Level Estimated
06:34PM 27.7651 -82.6270 188° South  Level Estimated